Terminal Aerodrome Forecast
Issued by NWS

Home | Current Version | Previous Version | Text Only | Print | Product List | Glossary On
Versions: 1 2 3 4 5 6 7 8 9 10 11 12 13 14 15 16 17
000
FTUS45 KABQ 071558 AAA
TAFLVS
TAF AMD
KLVS 071558Z 0716/0812 10007KT P6SM VCSH FEW006 BKN015 BKN035
      TEMPO 0716/0718 4SM -SHRA BR BKN010 OVC030
     FM071800 13007KT P6SM BKN025
     FM072200 17011KT P6SM VCTS BKN035CB
     FM080100 18010KT P6SM VCSH SCT025 BKN050
     FM080500 19008KT P6SM BKN012=

USA.gov is the U.S. government's official web portal to all federal, state and local government web resources and services.